Time;durP1;ratioP1;P1;durP2;ratioP2;P2;SDS_P1;SDS_P2;PMS_P1;PMS_P2;Temp;Humidity;BMP_temperature;BMP_pressure;BME280_temperature;BME280_humidity;BME280_pressure;Samples;Min_cycle;Max_cycle;Signal;HPM_P1;HPM_P2
2023/09/29 00:00:54;;;;;;;8.05;5.68;;;27.50;42.70;;;;;;5006261;28;20038;-66
2023/09/29 00:03:20;;;;;;;12.93;5.63;;;27.40;42.70;;;;;;5010853;28;20478;-66
2023/09/29 00:05:47;;;;;;;10.23;5.38;;;27.50;42.70;;;;;;5009772;28;20030;-66
2023/09/29 00:08:17;;;;;;;14.65;5.40;;;27.40;42.80;;;;;;5007416;28;20486;-66
2023/09/29 00:10:45;;;;;;;9.25;4.82;;;27.40;42.80;;;;;;5008610;28;20042;-67
2023/09/29 00:13:11;;;;;;;10.30;5.20;;;27.40;42.80;;;;;;4990568;28;20038;-66
2023/09/29 00:15:38;;;;;;;8.57;4.93;;;27.40;42.90;;;;;;4995315;28;20038;-66
2023/09/29 00:18:07;;;;;;;9.73;5.18;;;27.30;42.90;;;;;;4991852;28;20038;-66
2023/09/29 00:20:34;;;;;;;11.45;5.88;;;27.30;42.90;;;;;;5002223;28;20038;-66
2023/09/29 00:23:01;;;;;;;14.50;5.57;;;27.30;43.00;;;;;;5001029;28;20425;-67
2023/09/29 00:25:27;;;;;;;8.15;4.95;;;27.30;43.10;;;;;;5009494;28;20041;-66
2023/09/29 00:27:55;;;;;;;10.95;5.13;;;27.30;43.20;;;;;;5010923;28;20462;-66
2023/09/29 00:30:21;;;;;;;14.57;6.55;;;27.30;43.20;;;;;;5007352;28;20470;-66
2023/09/29 00:32:49;;;;;;;8.50;5.55;;;27.40;43.30;;;;;;5007040;28;20095;-66
2023/09/29 00:35:24;;;;;;;12.05;5.75;;;27.40;43.30;;;;;;5008630;28;20030;-67
2023/09/29 00:37:51;;;;;;;11.23;5.95;;;27.40;43.40;;;;;;5009535;28;20030;-66
2023/09/29 00:40:17;;;;;;;8.80;5.30;;;27.40;43.40;;;;;;4991185;28;20030;-66
2023/09/29 00:42:46;;;;;;;11.05;6.07;;;27.30;43.50;;;;;;4995690;28;20087;-66
2023/09/29 00:45:16;;;;;;;11.23;5.55;;;27.40;43.50;;;;;;4994011;28;20608;-66
2023/09/29 00:47:44;;;;;;;11.13;6.20;;;27.30;43.60;;;;;;4997446;28;20852;-67
2023/09/29 00:50:11;;;;;;;11.68;6.25;;;27.40;43.60;;;;;;5008058;28;20030;-66
2023/09/29 00:52:38;;;;;;;8.95;6.40;;;27.40;43.70;;;;;;5004340;28;20485;-67
2023/09/29 00:55:16;;;;;;;14.38;6.50;;;27.30;43.70;;;;;;5007388;28;20602;-66
2023/09/29 00:57:44;;;;;;;14.55;5.88;;;27.40;43.80;;;;;;5008190;28;20038;-67
2023/09/29 01:00:31;;;;;;;11.57;5.88;;;27.40;43.80;;;;;;5007996;28;20041;-66
2023/09/29 01:03:02;;;;;;;11.10;5.95;;;27.40;43.90;;;;;;5008389;28;20077;-66
2023/09/29 01:05:32;;;;;;;10.40;6.30;;;27.30;43.90;;;;;;5008185;28;20037;-66
2023/09/29 01:07:58;;;;;;;8.85;5.90;;;27.30;43.90;;;;;;5006345;28;20529;-66
2023/09/29 01:10:25;;;;;;;12.43;6.35;;;27.40;43.80;;;;;;5008004;28;20034;-66
2023/09/29 01:12:51;;;;;;;13.48;5.63;;;27.30;43.90;;;;;;5013148;28;20083;-67
2023/09/29 01:15:19;;;;;;;9.68;6.47;;;27.50;43.90;;;;;;5009300;28;20425;-68
2023/09/29 01:17:46;;;;;;;7.57;5.90;;;27.40;43.90;;;;;;4993052;28;20092;-66
2023/09/29 01:20:24;;;;;;;11.50;6.05;;;27.30;44.00;;;;;;5006214;28;20042;-66
2023/09/29 01:22:50;;;;;;;8.55;5.80;;;27.30;44.00;;;;;;5011315;28;20062;-66
2023/09/29 01:25:17;;;;;;;10.85;5.07;;;27.30;44.00;;;;;;5013178;28;20038;-66
2023/09/29 01:27:45;;;;;;;11.05;5.80;;;27.30;44.10;;;;;;5003426;28;20053;-66
2023/09/29 01:30:16;;;;;;;13.20;5.93;;;27.20;44.10;;;;;;4994494;28;20073;-66
2023/09/29 01:32:52;;;;;;;9.65;5.68;;;27.30;44.10;;;;;;5009350;28;20405;-66
2023/09/29 01:35:23;;;;;;;16.77;5.70;;;27.30;44.20;;;;;;5001967;28;20336;-66
2023/09/29 01:37:50;;;;;;;7.95;5.45;;;27.20;44.20;;;;;;4990290;28;20057;-66
2023/09/29 01:40:23;;;;;;;10.82;4.85;;;27.30;44.30;;;;;;5004560;28;20084;-67
2023/09/29 01:42:51;;;;;;;6.45;5.18;;;27.30;44.30;;;;;;4990104;28;20058;-66
2023/09/29 01:45:18;;;;;;;10.27;5.50;;;27.20;44.30;;;;;;4994766;28;20038;-66
2023/09/29 01:47:46;;;;;;;9.20;5.55;;;27.20;44.40;;;;;;4995156;28;20542;-66
2023/09/29 01:50:17;;;;;;;11.05;6.15;;;27.20;44.40;;;;;;4992105;28;20041;-66
2023/09/29 01:52:47;;;;;;;11.68;5.95;;;27.30;44.40;;;;;;5007623;28;20034;-66
2023/09/29 01:55:15;;;;;;;8.20;5.53;;;27.40;44.50;;;;;;5012870;28;20057;-66
2023/09/29 01:57:42;;;;;;;10.63;5.28;;;27.30;44.50;;;;;;5003611;28;20398;-66
2023/09/29 02:00:15;;;;;;;10.35;5.50;;;27.20;44.50;;;;;;5005427;28;20033;-67
2023/09/29 02:02:43;;;;;;;8.68;5.45;;;27.20;44.60;;;;;;5010373;28;20105;-66
2023/09/29 02:05:11;;;;;;;8.50;5.75;;;27.30;44.60;;;;;;5008633;28;20475;-66
2023/09/29 02:07:38;;;;;;;12.13;6.13;;;27.30;44.60;;;;;;4996255;28;20057;-67
2023/09/29 02:10:05;;;;;;;12.98;6.07;;;27.50;44.60;;;;;;5010478;28;20057;-66
2023/09/29 02:12:31;;;;;;;8.07;5.47;;;27.20;44.60;;;;;;5011808;28;20409;-67
2023/09/29 02:14:58;;;;;;;12.15;6.32;;;27.30;44.70;;;;;;5009782;28;20160;-66
2023/09/29 02:17:25;;;;;;;12.02;5.80;;;27.30;44.70;;;;;;4994822;28;20034;-66
2023/09/29 02:19:52;;;;;;;11.75;6.32;;;27.30;44.70;;;;;;5003981;28;20409;-66
2023/09/29 02:22:20;;;;;;;9.63;5.72;;;27.20;44.70;;;;;;4995072;28;20074;-67
2023/09/29 02:24:46;;;;;;;8.60;5.82;;;27.30;44.70;;;;;;5011706;28;20428;-66
2023/09/29 02:27:11;;;;;;;15.30;6.45;;;27.20;44.70;;;;;;5010698;28;20666;-66
2023/09/29 02:29:37;;;;;;;11.00;5.70;;;27.20;44.70;;;;;;5013114;28;20081;-66
2023/09/29 02:32:06;;;;;;;11.98;5.63;;;27.20;44.70;;;;;;4999333;28;20022;-67
2023/09/29 02:34:33;;;;;;;8.10;5.32;;;27.30;44.80;;;;;;5002402;28;20038;-66
2023/09/29 02:36:59;;;;;;;12.15;6.53;;;27.20;44.80;;;;;;4993535;28;20507;-66
2023/09/29 02:39:25;;;;;;;16.10;6.40;;;27.20;44.80;;;;;;5011021;28;20078;-66
2023/09/29 02:41:51;;;;;;;9.52;5.40;;;27.30;44.80;;;;;;5008877;28;20029;-66
2023/09/29 02:44:18;;;;;;;8.63;6.10;;;27.10;44.90;;;;;;5026485;28;20444;-66
2023/09/29 02:46:45;;;;;;;11.43;5.57;;;27.20;45.00;;;;;;4997869;28;20077;-66
2023/09/29 02:49:11;;;;;;;15.35;6.30;;;27.10;45.00;;;;;;5008748;28;20086;-66
2023/09/29 02:51:37;;;;;;;15.65;7.07;;;27.10;45.00;;;;;;5011379;28;20040;-66
2023/09/29 02:54:04;;;;;;;9.73;6.00;;;27.10;45.00;;;;;;5005089;28;20704;-66
2023/09/29 02:56:30;;;;;;;11.55;6.05;;;27.10;45.00;;;;;;5004704;28;20053;-65
2023/09/29 02:58:56;;;;;;;12.95;6.20;;;27.10;45.10;;;;;;4988481;28;20041;-66
2023/09/29 03:01:22;;;;;;;15.23;5.90;;;27.20;45.10;;;;;;5000699;28;20034;-66
2023/09/29 03:03:48;;;;;;;12.10;6.25;;;27.20;45.20;;;;;;5003962;28;20092;-66
2023/09/29 03:06:19;;;;;;;9.02;5.10;;;27.10;45.20;;;;;;5004852;28;20030;-66
2023/09/29 03:08:46;;;;;;;12.57;6.22;;;27.20;45.20;;;;;;5008635;28;20041;-66
2023/09/29 03:11:12;;;;;;;10.35;6.10;;;27.20;45.30;;;;;;5011571;28;20490;-66
2023/09/29 03:13:43;;;;;;;13.85;5.82;;;27.10;45.30;;;;;;5005032;28;20416;-66
2023/09/29 03:16:09;;;;;;;10.00;5.95;;;27.30;45.30;;;;;;5008489;28;20022;-66
2023/09/29 03:18:35;;;;;;;9.73;5.30;;;27.20;45.30;;;;;;5009523;28;20049;-66
2023/09/29 03:21:04;;;;;;;16.80;6.43;;;27.20;45.30;;;;;;5012315;28;20120;-66
2023/09/29 03:23:34;;;;;;;9.73;6.70;;;27.10;45.30;;;;;;5004303;28;20137;-66
2023/09/29 03:26:01;;;;;;;10.15;5.88;;;27.30;45.40;;;;;;4991987;28;20041;-66
2023/09/29 03:28:27;;;;;;;12.60;6.30;;;27.20;45.40;;;;;;4992753;28;20038;-66
2023/09/29 03:30:54;;;;;;;9.00;5.93;;;27.10;45.50;;;;;;5011465;28;20088;-66
2023/09/29 03:33:20;;;;;;;12.52;5.93;;;27.10;45.50;;;;;;5001543;28;20081;-66
2023/09/29 03:35:47;;;;;;;11.23;5.78;;;27.20;45.50;;;;;;5012383;28;20038;-66
2023/09/29 03:38:20;;;;;;;13.73;6.18;;;27.20;45.50;;;;;;5010889;28;20033;-67
2023/09/29 03:40:50;;;;;;;8.50;5.43;;;27.10;45.50;;;;;;4996174;28;20029;-66
2023/09/29 03:43:20;;;;;;;5.60;4.68;;;27.00;45.50;;;;;;4989408;28;20122;-66
2023/09/29 03:45:46;;;;;;;16.08;6.40;;;27.10;45.50;;;;;;5006275;28;20040;-65
2023/09/29 03:48:15;;;;;;;7.05;5.88;;;27.00;45.50;;;;;;5014431;28;20038;-65
2023/09/29 03:50:42;;;;;;;11.43;6.30;;;27.10;45.50;;;;;;4996468;28;20134;-66
2023/09/29 03:53:08;;;;;;;11.35;6.15;;;27.10;45.50;;;;;;4999509;28;20033;-67
2023/09/29 03:55:34;;;;;;;8.88;6.28;;;27.00;45.50;;;;;;5008780;28;20498;-66
2023/09/29 03:58:00;;;;;;;20.30;6.40;;;27.30;45.50;;;;;;5010500;28;20084;-66
2023/09/29 04:00:27;;;;;;;13.65;6.35;;;27.00;45.60;;;;;;4997678;28;20046;-65
2023/09/29 04:02:53;;;;;;;10.60;5.80;;;27.10;45.60;;;;;;4998529;28;20536;-66
2023/09/29 04:05:19;;;;;;;10.38;5.57;;;27.00;45.70;;;;;;5000291;28;20029;-67
2023/09/29 04:07:47;;;;;;;13.90;6.50;;;27.00;45.80;;;;;;5001531;28;20045;-66
2023/09/29 04:10:13;;;;;;;11.55;6.75;;;27.20;45.80;;;;;;4996872;28;20113;-65
2023/09/29 04:12:42;;;;;;;10.85;5.70;;;27.10;45.80;;;;;;5009922;28;20030;-66
2023/09/29 04:15:08;;;;;;;14.50;5.70;;;27.10;45.80;;;;;;5003629;28;20100;-66
2023/09/29 04:17:35;;;;;;;11.18;5.88;;;27.20;45.90;;;;;;5010959;28;20073;-66
2023/09/29 04:20:02;;;;;;;16.17;6.57;;;27.20;45.90;;;;;;5008258;28;20116;-66
2023/09/29 04:22:29;;;;;;;13.48;6.53;;;27.20;45.90;;;;;;5006651;28;20057;-66
2023/09/29 04:24:56;;;;;;;10.80;7.18;;;27.10;45.90;;;;;;5009908;28;20038;-66
2023/09/29 04:27:23;;;;;;;14.45;6.68;;;27.10;45.90;;;;;;5009653;28;20545;-66
2023/09/29 04:29:50;;;;;;;13.57;6.18;;;27.10;45.90;;;;;;5011321;28;20445;-66
2023/09/29 04:32:17;;;;;;;11.43;7.55;;;27.20;45.90;;;;;;5011448;28;20058;-65
2023/09/29 04:34:44;;;;;;;10.02;6.55;;;27.10;45.90;;;;;;5009035;28;20050;-66
2023/09/29 04:37:10;;;;;;;13.93;6.88;;;27.10;45.90;;;;;;5008959;28;20053;-66
2023/09/29 04:39:37;;;;;;;19.23;7.03;;;27.20;45.90;;;;;;4988742;28;20031;-65
2023/09/29 04:42:05;;;;;;;15.07;6.80;;;27.10;45.90;;;;;;4988557;28;20050;-66
2023/09/29 04:44:32;;;;;;;4.50;1.88;;;27.10;46.20;;;;;;4979708;28;20050;-67
2023/09/29 04:46:58;;;;;;;2.20;2.00;;;27.10;44.90;;;;;;4950861;28;20042;-67
2023/09/29 04:49:25;;;;;;;3.58;2.63;;;27.30;44.10;;;;;;4963930;28;20057;-67
2023/09/29 04:51:50;;;;;;;5.90;2.90;;;27.30;45.30;;;;;;4981769;28;20031;-67
2023/09/29 04:54:16;;;;;;;4.00;2.90;;;27.40;43.80;;;;;;4977590;28;20116;-68
2023/09/29 04:56:43;;;;;;;4.18;2.90;;;27.30;46.80;;;;;;4957655;28;20084;-68
2023/09/29 04:59:09;;;;;;;4.93;3.38;;;27.40;46.30;;;;;;4973168;28;20553;-68
2023/09/29 05:01:38;;;;;;;4.63;3.47;;;27.50;45.90;;;;;;4979776;28;20046;-68
2023/09/29 05:04:05;;;;;;;4.43;3.65;;;27.40;44.60;;;;;;4934462;29;20369;-67
2023/09/29 05:06:31;;;;;;;6.53;5.35;;;27.40;46.60;;;;;;4950136;29;20472;-69
2023/09/29 05:08:57;;;;;;;6.72;4.30;;;27.60;47.60;;;;;;4953049;29;20223;-68
2023/09/29 05:11:25;;;;;;;4.88;4.25;;;27.70;46.00;;;;;;4953775;29;20431;-69
2023/09/29 05:13:52;;;;;;;11.38;4.47;;;27.60;47.10;;;;;;4953900;29;20448;-68
2023/09/29 05:16:19;;;;;;;20.85;7.38;;;27.60;45.50;;;;;;4956989;28;20150;-68
2023/09/29 05:18:45;;;;;;;17.17;8.15;;;27.70;46.70;;;;;;4973250;28;20062;-68
2023/09/29 05:21:11;;;;;;;17.65;8.35;;;27.80;46.40;;;;;;4956550;28;20131;-68
2023/09/29 05:23:38;;;;;;;19.40;8.20;;;27.70;46.30;;;;;;4972571;28;20058;-69
2023/09/29 05:26:07;;;;;;;17.88;8.20;;;27.60;46.50;;;;;;4972958;28;20057;-70
2023/09/29 05:28:34;;;;;;;23.23;7.75;;;27.70;46.50;;;;;;4956906;28;20117;-69
2023/09/29 05:31:02;;;;;;;12.25;7.47;;;27.80;46.70;;;;;;4955719;28;20035;-68
2023/09/29 05:33:28;;;;;;;16.90;8.55;;;27.80;46.70;;;;;;4972049;28;20692;-67
2023/09/29 05:35:55;;;;;;;19.55;8.93;;;27.80;46.80;;;;;;4987481;28;20077;-70
2023/09/29 05:38:21;;;;;;;16.90;8.68;;;27.80;46.80;;;;;;5013550;28;20038;-69
2023/09/29 05:40:49;;;;;;;19.25;8.70;;;27.60;46.90;;;;;;5013101;28;20038;-69
2023/09/29 05:43:15;;;;;;;15.30;8.48;;;27.70;46.90;;;;;;5011091;28;20065;-69
2023/09/29 05:45:45;;;;;;;16.65;9.93;;;27.60;47.00;;;;;;5013316;28;21598;-68
2023/09/29 05:48:11;;;;;;;18.98;8.18;;;27.60;47.20;;;;;;5013586;28;20038;-69
2023/09/29 05:50:37;;;;;;;15.65;8.80;;;27.70;47.30;;;;;;5009734;28;20119;-68
2023/09/29 05:53:04;;;;;;;14.45;8.68;;;27.70;47.30;;;;;;5006955;28;20398;-69
2023/09/29 05:55:31;;;;;;;17.48;9.35;;;27.60;47.30;;;;;;5015848;28;20044;-69
2023/09/29 05:57:57;;;;;;;16.33;8.90;;;27.70;47.10;;;;;;5030164;28;20049;-68
2023/09/29 06:00:25;;;;;;;16.00;10.25;;;27.70;47.10;;;;;;5025443;28;20038;-68
2023/09/29 06:02:51;;;;;;;22.95;10.05;;;27.60;43.70;;;;;;5017618;28;20033;-69
2023/09/29 06:05:17;;;;;;;21.90;9.65;;;27.70;39.50;;;;;;5029591;28;20091;-68
2023/09/29 06:07:43;;;;;;;18.58;8.60;;;27.50;39.70;;;;;;5026171;28;20057;-69
2023/09/29 06:10:11;;;;;;;16.33;7.32;;;27.60;45.70;;;;;;5029716;28;20040;-68
2023/09/29 06:12:37;;;;;;;15.43;8.52;;;27.60;46.40;;;;;;5030076;28;20042;-68
2023/09/29 06:15:04;;;;;;;12.30;7.68;;;27.70;46.50;;;;;;5031012;28;20041;-69
2023/09/29 06:17:31;;;;;;;16.80;8.57;;;27.50;46.60;;;;;;5030783;28;20042;-68
2023/09/29 06:19:57;;;;;;;12.00;7.93;;;27.50;46.60;;;;;;5030451;28;20056;-68
2023/09/29 06:22:24;;;;;;;10.93;7.95;;;27.60;46.60;;;;;;5013400;28;20057;-67
2023/09/29 06:24:50;;;;;;;20.23;8.55;;;27.50;46.70;;;;;;5018956;28;20042;-68
2023/09/29 06:27:16;;;;;;;14.70;8.80;;;27.50;47.10;;;;;;5023635;28;20659;-67
2023/09/29 06:29:49;;;;;;;10.52;6.75;;;27.40;52.60;;;;;;5030619;28;20478;-66
2023/09/29 06:32:16;;;;;;;13.27;7.88;;;27.50;50.60;;;;;;5010596;28;20143;-67
2023/09/29 06:34:42;;;;;;;12.25;8.18;;;27.50;49.30;;;;;;5012737;28;20030;-67
2023/09/29 06:37:09;;;;;;;21.85;7.88;;;27.50;48.40;;;;;;5012527;28;20444;-67
2023/09/29 06:39:36;;;;;;;13.35;6.88;;;27.30;48.00;;;;;;5013136;28;20037;-67
2023/09/29 06:42:02;;;;;;;19.42;7.28;;;27.50;47.90;;;;;;5012864;28;20038;-67
2023/09/29 06:44:29;;;;;;;10.00;3.75;;;27.40;47.70;;;;;;5012930;28;20088;-67
2023/09/29 06:46:55;;;;;;;14.68;7.32;;;27.40;47.70;;;;;;5012653;28;20125;-67
2023/09/29 06:49:22;;;;;;;6.75;3.80;;;27.40;47.70;;;;;;5012703;28;20074;-67
2023/09/29 06:51:48;;;;;;;12.27;6.35;;;27.50;47.80;;;;;;5012396;28;20049;-68
2023/09/29 06:54:14;;;;;;;8.90;3.83;;;27.50;47.80;;;;;;5012844;28;20025;-67
2023/09/29 06:56:40;;;;;;;4.18;3.15;;;27.40;47.80;;;;;;5012793;28;20117;-67
2023/09/29 06:59:07;;;;;;;16.33;7.45;;;27.70;47.80;;;;;;5012766;28;20061;-67
2023/09/29 07:01:34;;;;;;;7.20;4.38;;;27.50;47.70;;;;;;5012450;28;20528;-67
2023/09/29 07:04:00;;;;;;;14.13;7.45;;;27.40;47.70;;;;;;5012423;28;20034;-67
2023/09/29 07:06:26;;;;;;;5.68;3.58;;;27.50;47.70;;;;;;5012239;28;20777;-68
2023/09/29 07:08:52;;;;;;;17.42;6.50;;;27.50;47.70;;;;;;4992715;28;20497;-68
2023/09/29 07:11:18;;;;;;;5.00;4.15;;;27.60;47.70;;;;;;5006731;28;20080;-68
2023/09/29 07:13:44;;;;;;;4.65;2.88;;;27.50;47.70;;;;;;4993783;28;20109;-67
2023/09/29 07:16:10;;;;;;;6.28;3.65;;;27.50;47.70;;;;;;5011892;28;20057;-73
2023/09/29 07:18:36;;;;;;;4.80;3.20;;;27.70;47.70;;;;;;5010763;28;20033;-67
2023/09/29 07:21:02;;;;;;;6.80;4.25;;;27.50;47.60;;;;;;5012123;28;20030;-66
2023/09/29 07:23:33;;;;;;;9.82;3.88;;;27.70;47.50;;;;;;5011852;28;20189;-66
2023/09/29 07:25:59;;;;;;;5.43;3.30;;;27.60;47.20;;;;;;5011949;28;20497;-67
2023/09/29 07:28:25;;;;;;;5.43;3.50;;;27.70;47.00;;;;;;5012252;28;20120;-66
2023/09/29 07:30:51;;;;;;;9.10;3.42;;;27.60;46.90;;;;;;5011563;28;20160;-67
2023/09/29 07:33:17;;;;;;;7.65;3.53;;;27.70;46.70;;;;;;5010482;28;20432;-67
2023/09/29 07:35:47;;;;;;;9.25;4.00;;;27.70;46.70;;;;;;5011892;28;20109;-67
2023/09/29 07:38:13;;;;;;;5.75;3.35;;;27.80;46.70;;;;;;5011478;28;20156;-65
2023/09/29 07:40:39;;;;;;;11.32;4.43;;;27.80;46.70;;;;;;5005859;28;20037;-65
2023/09/29 07:43:06;;;;;;;5.45;3.72;;;27.70;46.70;;;;;;5011272;28;20037;-67
2023/09/29 07:45:32;;;;;;;12.05;6.43;;;27.70;46.70;;;;;;5012067;28;20679;-65
2023/09/29 07:47:58;;;;;;;8.07;3.80;;;27.60;46.70;;;;;;5011634;28;20355;-66
2023/09/29 07:50:25;;;;;;;6.10;3.47;;;27.70;46.70;;;;;;5011963;28;20053;-66
2023/09/29 07:52:51;;;;;;;5.93;3.55;;;27.60;46.60;;;;;;5003093;28;20038;-66
2023/09/29 07:55:18;;;;;;;8.05;3.83;;;27.70;46.70;;;;;;4992605;28;20026;-66
2023/09/29 07:57:44;;;;;;;6.38;3.67;;;27.70;46.70;;;;;;4992846;28;20042;-67
2023/09/29 08:00:15;;;;;;;5.25;3.33;;;27.60;46.70;;;;;;5011591;28;20088;-66
2023/09/29 08:02:43;;;;;;;6.78;4.07;;;27.80;46.70;;;;;;5011334;28;20029;-66
2023/09/29 08:05:12;;;;;;;7.60;3.83;;;27.70;46.80;;;;;;5011482;28;20092;-68
2023/09/29 08:07:41;;;;;;;6.65;3.75;;;27.80;46.80;;;;;;5011260;28;20038;-67
2023/09/29 08:10:10;;;;;;;7.00;4.20;;;27.80;46.90;;;;;;5011383;28;20042;-67
2023/09/29 08:12:36;;;;;;;6.13;3.85;;;27.80;46.90;;;;;;5010889;28;20045;-66
2023/09/29 08:15:05;;;;;;;6.85;3.45;;;27.80;46.90;;;;;;5010442;28;20041;-66
2023/09/29 08:17:32;;;;;;;10.68;6.28;;;27.80;47.00;;;;;;5009218;28;20030;-66
2023/09/29 08:19:57;;;;;;;7.65;4.13;;;27.80;46.90;;;;;;4999425;28;20068;-67
2023/09/29 08:22:24;;;;;;;6.85;3.67;;;27.70;46.40;;;;;;5009476;28;20046;-66
2023/09/29 08:24:50;;;;;;;8.60;4.22;;;27.70;46.60;;;;;;5010575;28;20044;-67
2023/09/29 08:27:16;;;;;;;6.05;4.30;;;27.80;46.90;;;;;;5010261;28;20041;-66
2023/09/29 08:29:42;;;;;;;6.78;3.80;;;27.70;47.40;;;;;;5009775;28;20172;-67
2023/09/29 08:32:08;;;;;;;7.57;3.55;;;27.80;47.80;;;;;;5009898;28;20034;-68
2023/09/29 08:34:35;;;;;;;12.07;4.90;;;27.90;48.30;;;;;;5010223;28;20205;-68
2023/09/29 08:37:01;;;;;;;9.65;4.43;;;27.70;48.30;;;;;;5007899;28;20079;-68
2023/09/29 08:39:28;;;;;;;6.53;4.53;;;27.90;47.20;;;;;;5008357;28;20029;-68
2023/09/29 08:42:05;;;;;;;8.05;4.40;;;27.70;45.80;;;;;;5009933;28;20030;-68
2023/09/29 08:44:33;;;;;;;8.02;5.47;;;27.80;45.20;;;;;;5010079;28;20026;-68
2023/09/29 08:47:01;;;;;;;12.43;5.53;;;27.70;44.90;;;;;;5010401;28;20026;-68
2023/09/29 08:49:32;;;;;;;8.18;4.60;;;27.70;44.60;;;;;;5010488;28;20041;-68
2023/09/29 08:52:00;;;;;;;11.50;5.30;;;27.80;44.40;;;;;;5010004;28;20057;-69
2023/09/29 08:54:28;;;;;;;8.13;4.78;;;27.80;44.10;;;;;;5010721;28;20034;-69
2023/09/29 08:56:56;;;;;;;8.20;5.57;;;27.80;43.70;;;;;;5009859;28;20034;-69
2023/09/29 08:59:22;;;;;;;6.60;5.30;;;27.80;43.40;;;;;;5009867;28;20058;-70
2023/09/29 09:01:49;;;;;;;11.85;4.85;;;27.80;43.30;;;;;;5007358;28;20041;-70
2023/09/29 09:04:15;;;;;;;6.93;4.90;;;27.80;43.00;;;;;;5009660;28;20370;-69
2023/09/29 09:06:41;;;;;;;8.43;5.53;;;27.80;42.90;;;;;;5008227;28;20136;-70
2023/09/29 09:09:08;;;;;;;6.75;4.93;;;27.80;42.70;;;;;;5010871;28;20045;-70
2023/09/29 09:11:44;;;;;;;7.53;5.72;;;27.80;42.50;;;;;;5009520;28;20512;-69
2023/09/29 09:14:10;;;;;;;6.90;4.88;;;27.70;42.40;;;;;;5010436;28;20103;-70
2023/09/29 09:16:38;;;;;;;9.57;5.07;;;27.80;42.20;;;;;;5010914;28;20030;-70
2023/09/29 09:19:12;;;;;;;8.90;5.13;;;27.80;42.20;;;;;;5010773;28;20058;-70
2023/09/29 09:21:38;;;;;;;10.05;6.15;;;27.80;42.10;;;;;;5010191;28;20090;-69
2023/09/29 09:24:25;;;;;;;10.05;4.85;;;27.70;42.00;;;;;;4989621;28;20038;-70
2023/09/29 09:27:00;;;;;;;10.60;5.00;;;27.80;41.70;;;;;;4994980;28;20038;-69
2023/09/29 09:29:28;;;;;;;8.77;5.57;;;27.60;41.50;;;;;;4994747;28;20050;-70
2023/09/29 09:31:56;;;;;;;8.80;5.50;;;27.70;41.50;;;;;;4994518;28;20038;-69
2023/09/29 09:34:32;;;;;;;6.18;4.40;;;27.70;41.40;;;;;;4994711;28;20038;-69
2023/09/29 09:36:58;;;;;;;8.93;5.38;;;27.70;41.30;;;;;;5006402;28;20124;-69
2023/09/29 09:39:24;;;;;;;9.73;5.15;;;27.70;41.20;;;;;;4996573;28;20121;-69
2023/09/29 09:41:58;;;;;;;6.28;4.72;;;27.60;41.10;;;;;;5014132;28;20095;-69
2023/09/29 09:44:26;;;;;;;5.63;4.13;;;27.70;41.10;;;;;;5014018;28;20048;-69
2023/09/29 09:47:10;;;;;;;8.23;4.78;;;27.60;41.00;;;;;;5012870;28;20091;-69
2023/09/29 09:49:47;;;;;;;7.10;4.88;;;27.70;41.00;;;;;;5013210;28;20046;-69
2023/09/29 09:52:24;;;;;;;5.60;4.63;;;27.50;41.00;;;;;;5010569;28;20026;-69
2023/09/29 09:54:52;;;;;;;8.02;5.50;;;27.50;40.90;;;;;;5014284;28;20095;-69
2023/09/29 09:57:27;;;;;;;5.88;4.72;;;27.40;40.90;;;;;;5013879;28;20022;-69
2023/09/29 09:59:54;;;;;;;10.57;4.80;;;27.60;40.90;;;;;;5013776;28;20441;-69
2023/09/29 10:02:22;;;;;;;5.55;4.68;;;27.50;40.80;;;;;;5013781;28;20034;-69
2023/09/29 10:04:50;;;;;;;10.77;5.18;;;27.50;40.80;;;;;;5013628;28;20045;-69
2023/09/29 10:07:17;;;;;;;6.55;4.55;;;27.60;40.90;;;;;;5013221;28;20037;-69
2023/09/29 10:09:48;;;;;;;6.88;4.53;;;27.50;40.90;;;;;;5010886;28;20049;-69
2023/09/29 10:12:28;;;;;;;10.20;4.83;;;27.50;41.00;;;;;;5010396;28;20034;-69
2023/09/29 10:14:58;;;;;;;6.75;4.40;;;27.50;41.00;;;;;;5010697;28;20521;-69
2023/09/29 10:17:37;;;;;;;10.75;5.00;;;27.50;41.00;;;;;;4991847;28;20243;-68
2023/09/29 10:20:04;;;;;;;9.05;4.13;;;27.60;41.10;;;;;;5010170;28;20049;-70
2023/09/29 10:22:31;;;;;;;6.70;4.82;;;27.60;41.30;;;;;;5009811;28;20053;-68
2023/09/29 10:24:57;;;;;;;8.15;5.10;;;27.50;41.40;;;;;;5007228;28;20045;-69
2023/09/29 10:27:32;;;;;;;9.50;4.80;;;27.70;41.90;;;;;;4993685;28;20049;-71
2023/09/29 10:30:18;;;;;;;7.82;5.07;;;27.70;42.10;;;;;;4983666;28;20042;-70
2023/09/29 10:32:48;;;;;;;7.18;4.60;;;27.60;42.20;;;;;;5018353;28;20045;-69
2023/09/29 10:35:19;;;;;;;9.75;5.05;;;27.70;42.30;;;;;;5003521;28;20089;-69
2023/09/29 10:37:54;;;;;;;8.77;4.53;;;27.60;42.40;;;;;;5019631;28;20037;-71
2023/09/29 10:40:22;;;;;;;23.88;6.85;;;27.50;44.40;;;;;;4997199;28;20406;-71
2023/09/29 10:42:48;;;;;;;13.68;5.22;;;27.70;45.30;;;;;;5015723;28;20053;-70
2023/09/29 10:45:26;;;;;;;10.68;4.88;;;27.90;50.50;;;;;;5020369;28;20044;-69
2023/09/29 10:47:53;;;;;;;6.22;4.65;;;27.90;49.40;;;;;;5020937;28;20593;-70
2023/09/29 10:50:19;;;;;;;7.85;4.57;;;27.90;46.90;;;;;;5001159;28;20081;-71
2023/09/29 10:52:45;;;;;;;8.27;5.20;;;27.90;46.20;;;;;;5012303;28;20039;-72
2023/09/29 10:55:12;;;;;;;8.82;4.85;;;28.00;46.00;;;;;;5009478;28;20084;-72
2023/09/29 10:57:38;;;;;;;6.28;4.45;;;28.00;47.10;;;;;;5006672;28;20042;-73
2023/09/29 11:00:05;;;;;;;7.88;4.85;;;28.30;48.20;;;;;;5007105;28;20059;-68
2023/09/29 11:02:35;;;;;;;26.35;6.05;;;28.20;49.10;;;;;;5008448;28;20052;-69
2023/09/29 11:05:06;;;;;;;7.72;5.05;;;28.30;48.00;;;;;;5009425;28;20073;-69
2023/09/29 11:07:49;;;;;;;7.65;4.47;;;28.50;48.10;;;;;;5008644;28;20089;-69
2023/09/29 11:10:17;;;;;;;7.70;4.57;;;28.50;47.30;;;;;;5007188;28;20456;-69
2023/09/29 11:12:47;;;;;;;7.32;4.72;;;28.70;46.70;;;;;;5000526;28;20105;-67
2023/09/29 11:15:18;;;;;;;7.53;4.57;;;28.70;44.40;;;;;;5010285;28;20096;-68
2023/09/29 11:17:48;;;;;;;8.55;4.38;;;28.70;43.90;;;;;;5009557;28;20025;-68
2023/09/29 11:20:16;;;;;;;7.78;4.38;;;28.80;43.20;;;;;;5010554;28;20040;-68
2023/09/29 11:22:45;;;;;;;3.25;2.80;;;28.90;42.70;;;;;;5010477;28;20493;-69
2023/09/29 11:25:20;;;;;;;7.55;4.20;;;28.80;42.50;;;;;;5009086;28;20037;-69
2023/09/29 11:27:50;;;;;;;5.00;4.07;;;28.90;41.90;;;;;;5008082;28;20045;-69
2023/09/29 11:30:20;;;;;;;8.10;4.60;;;29.00;42.80;;;;;;5009131;28;20040;-70
2023/09/29 11:32:47;;;;;;;9.32;4.20;;;29.00;42.50;;;;;;5010860;28;20034;-70
2023/09/29 11:35:16;;;;;;;6.93;4.93;;;29.10;42.30;;;;;;5010033;28;20650;-69
2023/09/29 11:37:46;;;;;;;7.07;4.00;;;29.00;41.70;;;;;;5011847;28;20486;-68
2023/09/29 11:40:12;;;;;;;11.07;4.00;;;29.00;42.10;;;;;;5008390;28;20113;-69
2023/09/29 11:42:40;;;;;;;12.15;7.70;;;29.10;42.40;;;;;;5010611;28;20024;-68
2023/09/29 11:45:10;;;;;;;7.90;4.85;;;29.20;42.70;;;;;;4974779;28;20046;-70
2023/09/29 11:47:41;;;;;;;6.93;4.40;;;29.40;41.40;;;;;;5003885;28;20034;-68
2023/09/29 11:50:11;;;;;;;14.35;5.18;;;29.40;42.20;;;;;;5009521;28;20049;-68
2023/09/29 11:52:39;;;;;;;9.75;5.50;;;29.30;42.80;;;;;;5008993;28;20394;-68
2023/09/29 11:55:11;;;;;;;9.38;5.05;;;29.50;40.90;;;;;;5009917;28;20409;-70
2023/09/29 11:57:40;;;;;;;6.70;4.10;;;29.50;39.90;;;;;;5010623;28;20042;-69
2023/09/29 12:00:14;;;;;;;5.93;4.18;;;29.40;40.40;;;;;;5008583;28;20373;-70
2023/09/29 12:02:40;;;;;;;6.75;5.03;;;29.50;39.90;;;;;;5021577;28;20049;-68
2023/09/29 12:05:07;;;;;;;6.38;3.95;;;29.40;39.90;;;;;;5010097;28;20041;-69
2023/09/29 12:07:35;;;;;;;9.82;4.80;;;29.30;40.10;;;;;;5009598;28;20025;-69
2023/09/29 12:10:02;;;;;;;5.05;3.55;;;29.40;40.10;;;;;;5006058;28;20441;-68
2023/09/29 12:12:28;;;;;;;5.45;3.75;;;29.30;40.40;;;;;;5010325;28;20042;-68
2023/09/29 12:14:54;;;;;;;5.25;4.25;;;29.30;40.60;;;;;;5009285;28;20033;-69
2023/09/29 12:17:20;;;;;;;4.35;3.00;;;29.20;41.00;;;;;;5008236;28;20044;-69
2023/09/29 12:19:49;;;;;;;5.68;3.45;;;29.20;41.10;;;;;;5007674;28;20053;-70
2023/09/29 12:22:15;;;;;;;4.97;3.40;;;29.10;41.00;;;;;;5009487;28;20045;-70
2023/09/29 12:24:41;;;;;;;8.50;4.25;;;29.10;41.00;;;;;;5009945;28;20505;-72
2023/09/29 12:27:10;;;;;;;5.80;3.63;;;29.00;40.90;;;;;;5009829;28;20072;-70
2023/09/29 12:29:36;;;;;;;4.05;3.30;;;29.00;40.90;;;;;;5010557;28;20104;-69
2023/09/29 12:32:03;;;;;;;5.53;3.47;;;29.00;40.80;;;;;;5010550;28;20431;-68
2023/09/29 12:34:32;;;;;;;5.22;3.28;;;28.80;40.30;;;;;;5004885;28;20040;-69
2023/09/29 12:37:02;;;;;;;3.47;2.80;;;28.70;40.70;;;;;;5008977;28;20046;-69
2023/09/29 12:39:28;;;;;;;4.45;3.05;;;28.90;40.60;;;;;;5011315;28;20415;-69
2023/09/29 12:41:55;;;;;;;4.20;2.97;;;28.80;41.90;;;;;;5010178;28;20557;-69
2023/09/29 12:44:21;;;;;;;4.50;3.60;;;28.70;41.80;;;;;;5010280;28;21795;-70
2023/09/29 12:46:47;;;;;;;3.67;3.15;;;28.80;41.10;;;;;;5010641;28;20052;-68